Time;durP1;ratioP1;P1;durP2;ratioP2;P2;SDS_P1;SDS_P2;PMS_P1;PMS_P2;Temp;Humidity;BMP_temperature;BMP_pressure;BME280_temperature;BME280_humidity;BME280_pressure;Samples;Min_cycle;Max_cycle;Signal;HPM_P1;HPM_P2
2023/01/28 00:01:10;;;;;;;12.48;8.35;;;3.40;99.90;;;;;;5074010;28;20045;-63
2023/01/28 00:03:36;;;;;;;13.98;8.85;;;3.50;99.90;;;;;;5076410;28;20402;-63
2023/01/28 00:06:08;;;;;;;12.35;8.93;;;3.40;99.90;;;;;;5078724;28;20119;-63
2023/01/28 00:08:34;;;;;;;11.88;8.25;;;3.40;99.90;;;;;;5080286;28;20036;-62
2023/01/28 00:11:01;;;;;;;12.63;8.50;;;3.50;99.90;;;;;;5075403;28;20040;-61
2023/01/28 00:13:27;;;;;;;12.40;8.40;;;3.40;99.90;;;;;;5074075;28;20043;-61
2023/01/28 00:15:57;;;;;;;13.07;8.52;;;3.40;99.90;;;;;;5065992;28;20483;-62
2023/01/28 00:18:24;;;;;;;13.00;8.80;;;3.40;99.90;;;;;;5071972;28;20071;-61
2023/01/28 00:21:05;;;;;;;12.73;8.65;;;3.40;99.90;;;;;;5070507;28;20059;-61
2023/01/28 00:23:33;;;;;;;14.52;8.18;;;3.40;99.90;;;;;;5077296;28;20028;-62
2023/01/28 00:26:00;;;;;;;12.48;8.45;;;3.40;99.90;;;;;;5071840;28;20049;-61
2023/01/28 00:28:26;;;;;;;12.63;8.60;;;3.40;99.90;;;;;;5069796;28;20036;-61
2023/01/28 00:30:51;;;;;;;12.70;8.80;;;3.40;99.90;;;;;;5085575;28;20546;-62
2023/01/28 00:33:17;;;;;;;12.27;8.32;;;3.40;99.90;;;;;;5067586;28;20056;-62
2023/01/28 00:35:43;;;;;;;11.48;8.18;;;3.40;99.90;;;;;;5075724;28;20471;-63
2023/01/28 00:38:09;;;;;;;12.02;8.43;;;3.40;99.90;;;;;;5066648;28;20036;-63
2023/01/28 00:40:35;;;;;;;11.55;8.35;;;3.40;99.90;;;;;;5077619;28;20036;-63
2023/01/28 00:43:01;;;;;;;12.50;8.57;;;3.40;99.90;;;;;;5073479;28;20098;-62
2023/01/28 00:45:26;;;;;;;11.57;7.82;;;3.40;99.90;;;;;;5083331;28;20533;-63
2023/01/28 00:47:52;;;;;;;12.10;8.40;;;3.40;99.90;;;;;;5070852;28;20044;-62
2023/01/28 00:50:20;;;;;;;12.80;9.32;;;3.40;99.90;;;;;;5063908;28;20439;-63
2023/01/28 00:52:46;;;;;;;13.07;9.30;;;3.40;99.90;;;;;;5061005;28;20553;-62
2023/01/28 00:55:12;;;;;;;15.15;8.50;;;3.40;99.90;;;;;;5082338;28;20032;-62
2023/01/28 00:57:38;;;;;;;13.48;9.73;;;3.40;99.90;;;;;;5087900;28;20032;-62
2023/01/28 01:00:05;;;;;;;11.68;8.20;;;3.40;99.90;;;;;;5082110;28;20089;-63
2023/01/28 01:02:31;;;;;;;12.15;8.75;;;3.40;99.90;;;;;;5068224;28;20487;-62
2023/01/28 01:04:59;;;;;;;13.60;9.77;;;3.40;99.90;;;;;;5070395;28;20165;-62
2023/01/28 01:07:42;;;;;;;13.10;8.80;;;3.40;99.90;;;;;;5071257;28;20059;-63
2023/01/28 01:10:12;;;;;;;;;;;3.40;99.90;;;;;;5075228;28;20052;-63
2023/01/28 01:12:38;;;;;;;14.30;9.82;;;3.40;99.90;;;;;;5071418;28;20028;-63
2023/01/28 01:15:09;;;;;;;13.20;9.55;;;3.40;99.90;;;;;;5071222;28;20029;-63
2023/01/28 01:17:38;;;;;;;12.80;9.20;;;3.40;99.90;;;;;;5076375;28;20040;-63
2023/01/28 01:20:05;;;;;;;12.60;9.70;;;3.30;99.90;;;;;;5075052;28;20334;-62
2023/01/28 01:22:35;;;;;;;14.30;9.70;;;3.40;99.90;;;;;;5068090;28;20066;-62
2023/01/28 01:25:02;;;;;;;13.48;9.93;;;3.40;99.90;;;;;;5068388;28;20055;-61
2023/01/28 01:27:29;;;;;;;16.17;9.65;;;3.30;99.90;;;;;;5070213;28;20068;-62
2023/01/28 01:29:55;;;;;;;14.80;9.60;;;3.30;99.90;;;;;;5067979;28;20079;-63
2023/01/28 01:32:21;;;;;;;13.40;9.63;;;3.30;99.90;;;;;;5072360;28;20495;-63
2023/01/28 01:34:47;;;;;;;13.55;9.25;;;3.30;99.90;;;;;;5058167;28;20074;-62
2023/01/28 01:37:12;;;;;;;13.35;9.30;;;3.30;99.90;;;;;;5075335;28;20040;-63
2023/01/28 01:39:38;;;;;;;14.15;9.40;;;3.30;99.90;;;;;;5078869;28;20482;-62
2023/01/28 01:42:03;;;;;;;13.55;9.23;;;3.30;99.90;;;;;;5080350;28;20039;-63
2023/01/28 01:44:52;;;;;;;13.23;9.40;;;3.30;99.90;;;;;;5076953;28;21823;-62
2023/01/28 01:47:20;;;;;;;12.52;8.70;;;3.30;99.90;;;;;;5061405;28;20047;-62
2023/01/28 01:49:46;;;;;;;12.73;8.57;;;3.30;99.90;;;;;;5064105;28;20076;-62
2023/01/28 01:52:16;;;;;;;13.30;9.23;;;3.30;99.90;;;;;;5066413;28;20109;-61
2023/01/28 01:54:45;;;;;;;12.90;9.07;;;3.30;99.90;;;;;;5074737;28;20372;-61
2023/01/28 01:57:15;;;;;;;13.32;9.00;;;3.30;99.90;;;;;;5079377;28;20040;-61
2023/01/28 01:59:43;;;;;;;13.68;9.48;;;3.30;99.90;;;;;;5068431;28;20051;-63
2023/01/28 02:02:10;;;;;;;13.13;9.32;;;3.20;99.90;;;;;;5079103;28;20040;-62
2023/01/28 02:04:43;;;;;;;15.70;9.95;;;3.20;99.90;;;;;;5071112;28;20036;-61
2023/01/28 02:07:11;;;;;;;13.27;9.45;;;3.20;99.90;;;;;;5059922;28;20032;-61
2023/01/28 02:09:37;;;;;;;14.85;9.43;;;3.20;99.90;;;;;;5070158;28;20040;-61
2023/01/28 02:12:09;;;;;;;14.38;9.68;;;3.20;99.90;;;;;;5068339;28;20276;-61
2023/01/28 02:14:39;;;;;;;13.95;9.85;;;3.20;99.90;;;;;;5076690;28;20045;-61
2023/01/28 02:17:05;;;;;;;13.68;10.13;;;3.20;99.90;;;;;;5075713;28;20266;-61
2023/01/28 02:19:53;;;;;;;13.95;10.23;;;3.20;99.90;;;;;;5072935;28;20094;-61
2023/01/28 02:22:40;;;;;;;15.05;10.18;;;3.10;99.90;;;;;;5069075;28;20041;-62
2023/01/28 02:25:18;;;;;;;14.00;9.80;;;3.10;99.90;;;;;;5084424;28;20119;-61
2023/01/28 02:27:49;;;;;;;15.90;10.85;;;3.10;99.90;;;;;;5058989;28;20433;-62
2023/01/28 02:30:27;;;;;;;14.35;10.32;;;3.10;99.90;;;;;;5063552;28;20076;-62
2023/01/28 02:32:59;;;;;;;14.77;10.18;;;3.10;99.90;;;;;;5066931;28;20048;-61
2023/01/28 02:35:40;;;;;;;14.52;9.90;;;3.10;99.90;;;;;;5073897;28;20447;-62
2023/01/28 02:38:26;;;;;;;13.65;9.85;;;3.10;99.90;;;;;;5080348;28;20086;-61
2023/01/28 02:41:01;;;;;;;14.38;10.38;;;3.10;99.90;;;;;;5068119;28;20753;-62
2023/01/28 02:43:46;;;;;;;16.63;10.45;;;3.10;99.90;;;;;;5062791;28;20433;-61
2023/01/28 02:49:27;;;;;;;13.93;10.20;;;3.10;99.90;;;;;;5074240;28;20986;-62
2023/01/28 02:52:11;;;;;;;14.07;10.30;;;3.10;99.90;;;;;;5077416;28;20040;-63
2023/01/28 02:54:55;;;;;;;14.25;10.25;;;3.10;99.90;;;;;;5065263;28;20029;-62
2023/01/28 02:57:36;;;;;;;14.95;10.43;;;3.10;99.90;;;;;;5066581;28;20068;-61
2023/01/28 03:00:17;;;;;;;15.52;10.88;;;3.00;99.90;;;;;;5072708;28;20055;-61
2023/01/28 03:02:53;;;;;;;17.27;10.90;;;3.00;99.90;;;;;;5072839;28;20474;-62
2023/01/28 03:05:30;;;;;;;14.90;10.88;;;3.00;99.90;;;;;;5065995;28;20043;-63
2023/01/28 03:07:56;;;;;;;15.68;11.13;;;3.00;99.90;;;;;;5070124;28;20154;-61
2023/01/28 03:10:25;;;;;;;16.35;10.95;;;3.00;99.90;;;;;;5065251;28;20099;-61
2023/01/28 03:38:32;;;;;;;16.50;11.07;;;2.90;99.90;;;;;;5062925;28;20074;-62
2023/01/28 03:41:02;;;;;;;19.00;11.40;;;3.00;99.90;;;;;;5070378;28;20064;-62
2023/01/28 03:43:29;;;;;;;16.58;11.15;;;2.90;99.90;;;;;;5070417;28;20047;-62
2023/01/28 03:45:55;;;;;;;14.68;10.57;;;3.00;99.90;;;;;;5077249;28;20261;-62
2023/01/28 03:48:23;;;;;;;14.93;10.85;;;2.90;99.90;;;;;;5086817;28;20035;-63
2023/01/28 03:50:49;;;;;;;17.30;11.07;;;2.90;99.90;;;;;;5070475;28;20433;-62
2023/01/28 03:53:16;;;;;;;16.17;10.23;;;2.90;99.90;;;;;;5079797;28;20032;-63
2023/01/28 03:55:43;;;;;;;14.13;10.15;;;2.90;99.90;;;;;;5082360;28;20153;-63
2023/01/28 03:58:09;;;;;;;15.68;10.77;;;2.90;99.90;;;;;;5073504;28;20564;-63
2023/01/28 04:00:41;;;;;;;14.38;9.95;;;2.90;99.90;;;;;;5080294;28;20079;-63
2023/01/28 04:03:17;;;;;;;14.65;9.82;;;2.90;99.90;;;;;;5074565;28;20510;-64
2023/01/28 04:05:44;;;;;;;15.88;10.95;;;2.90;99.90;;;;;;5068999;28;20123;-63
2023/01/28 04:08:10;;;;;;;13.90;10.18;;;2.90;99.90;;;;;;5079392;28;20047;-62
2023/01/28 04:10:38;;;;;;;14.40;10.52;;;2.90;99.90;;;;;;5070203;28;20070;-62
2023/01/28 04:13:04;;;;;;;15.05;10.27;;;2.90;99.90;;;;;;5082153;28;20040;-62
2023/01/28 04:15:29;;;;;;;13.50;9.68;;;2.90;99.90;;;;;;5065131;28;20047;-62
2023/01/28 04:17:55;;;;;;;13.90;9.88;;;2.90;99.90;;;;;;5076378;28;20470;-62
2023/01/28 04:20:21;;;;;;;15.20;10.55;;;2.90;99.90;;;;;;5080834;28;20028;-63
2023/01/28 04:22:47;;;;;;;12.88;9.90;;;2.90;99.90;;;;;;5070645;28;20032;-63
2023/01/28 04:25:12;;;;;;;13.52;9.70;;;2.90;99.90;;;;;;5079153;28;20044;-62
2023/01/28 04:27:38;;;;;;;13.43;9.90;;;2.90;99.90;;;;;;5063873;28;20056;-62
2023/01/28 04:30:04;;;;;;;14.57;10.63;;;2.80;99.90;;;;;;5078987;28;20048;-62
2023/01/28 04:32:29;;;;;;;15.50;10.32;;;2.80;99.90;;;;;;5069625;28;20033;-63
2023/01/28 04:34:55;;;;;;;15.48;10.13;;;2.80;99.90;;;;;;5077444;28;20498;-63
2023/01/28 04:37:21;;;;;;;14.63;10.07;;;2.80;99.90;;;;;;5080994;28;20036;-62
2023/01/28 04:39:46;;;;;;;15.07;10.63;;;3.60;99.90;;;;;;5070516;28;20039;-62
2023/01/28 04:42:12;;;;;;;13.82;10.07;;;2.80;99.90;;;;;;5071140;28;20490;-63
2023/01/28 04:44:37;;;;;;;13.95;10.45;;;2.80;99.90;;;;;;5069246;28;20033;-63
2023/01/28 04:47:03;;;;;;;13.70;9.88;;;2.80;99.90;;;;;;5075958;28;20051;-62
2023/01/28 04:49:29;;;;;;;13.93;9.77;;;2.80;99.90;;;;;;5069955;28;20107;-61
2023/01/28 04:51:54;;;;;;;12.52;9.88;;;2.80;99.90;;;;;;5070145;28;20043;-63
2023/01/28 04:54:20;;;;;;;14.75;10.48;;;2.80;99.90;;;;;;5077967;28;20021;-63
2023/01/28 04:56:46;;;;;;;16.30;10.85;;;2.80;99.90;;;;;;5085688;28;20055;-64
2023/01/28 04:59:11;;;;;;;14.65;9.90;;;2.80;99.90;;;;;;5084607;28;20054;-62
2023/01/28 05:01:37;;;;;;;12.63;8.73;;;2.80;99.90;;;;;;5059625;28;20096;-62
2023/01/28 05:04:04;;;;;;;13.05;9.75;;;2.80;99.90;;;;;;5082839;28;20494;-62
2023/01/28 05:06:31;;;;;;;14.07;9.60;;;2.70;99.90;;;;;;5069617;28;20048;-62
2023/01/28 05:08:57;;;;;;;13.48;10.02;;;2.70;99.90;;;;;;5067062;28;20086;-62
2023/01/28 05:11:23;;;;;;;13.35;9.75;;;2.70;99.90;;;;;;5072980;28;20040;-62
2023/01/28 05:13:50;;;;;;;13.63;9.45;;;2.70;99.90;;;;;;5059131;28;20055;-62
2023/01/28 05:16:15;;;;;;;17.08;10.80;;;2.70;99.90;;;;;;5069383;28;20082;-63
2023/01/28 05:18:41;;;;;;;14.45;9.95;;;2.80;99.90;;;;;;5067453;28;20032;-63
2023/01/28 05:21:08;;;;;;;15.68;10.00;;;2.70;99.90;;;;;;5069244;28;20043;-62
2023/01/28 05:23:33;;;;;;;15.63;9.93;;;2.70;99.90;;;;;;5073330;28;20036;-62
2023/01/28 05:25:59;;;;;;;13.68;9.60;;;2.70;99.90;;;;;;5071473;28;20067;-62
2023/01/28 05:28:25;;;;;;;14.80;10.38;;;2.70;99.90;;;;;;5070647;28;20077;-62
2023/01/28 05:30:50;;;;;;;15.50;10.23;;;2.70;99.90;;;;;;5072168;28;20487;-62
2023/01/28 05:33:16;;;;;;;14.70;10.70;;;2.70;99.90;;;;;;5079681;28;20321;-62
2023/01/28 05:35:42;;;;;;;15.63;10.95;;;2.70;99.90;;;;;;5069466;28;20041;-62
2023/01/28 05:38:08;;;;;;;14.27;10.23;;;2.70;99.90;;;;;;5065759;28;20037;-62
2023/01/28 05:40:34;;;;;;;14.45;10.43;;;2.70;99.90;;;;;;5078078;28;20109;-62
2023/01/28 05:42:59;;;;;;;13.52;9.70;;;2.70;99.90;;;;;;5052194;28;20048;-62
2023/01/28 05:45:25;;;;;;;15.05;10.07;;;2.70;99.90;;;;;;5062921;28;20386;-64
2023/01/28 05:47:51;;;;;;;15.18;9.98;;;2.70;99.90;;;;;;5075233;28;20055;-63
2023/01/28 05:50:17;;;;;;;15.30;9.82;;;2.70;99.90;;;;;;5069140;28;20032;-62
2023/01/28 05:52:43;;;;;;;14.35;9.85;;;2.70;99.90;;;;;;5072943;28;20036;-62
2023/01/28 05:55:09;;;;;;;14.85;9.80;;;2.70;99.90;;;;;;5064766;28;20126;-62
2023/01/28 05:57:35;;;;;;;14.70;9.98;;;2.70;99.90;;;;;;5072471;28;20036;-61
2023/01/28 06:00:01;;;;;;;15.38;9.63;;;3.00;99.90;;;;;;5070727;28;20041;-62
2023/01/28 06:02:26;;;;;;;14.80;9.82;;;2.70;99.90;;;;;;5081156;28;20038;-64
2023/01/28 06:04:52;;;;;;;14.15;9.55;;;2.70;99.90;;;;;;5075081;28;20040;-62
2023/01/28 06:07:19;;;;;;;13.98;9.25;;;2.70;99.90;;;;;;5067505;28;20062;-64
2023/01/28 06:09:46;;;;;;;15.35;9.70;;;2.70;99.90;;;;;;5072498;28;20045;-62
2023/01/28 06:12:12;;;;;;;14.63;9.38;;;2.60;99.90;;;;;;5075162;28;20032;-62
2023/01/28 06:14:37;;;;;;;13.73;9.80;;;2.60;99.90;;;;;;5075685;28;20060;-62
2023/01/28 06:17:06;;;;;;;16.55;9.90;;;2.60;99.90;;;;;;5064042;28;20041;-63
2023/01/28 06:19:31;;;;;;;13.75;8.85;;;2.60;99.90;;;;;;5057410;28;20032;-62
2023/01/28 06:21:57;;;;;;;13.52;9.10;;;2.60;99.90;;;;;;5064960;28;20036;-62
2023/01/28 06:24:23;;;;;;;14.32;9.55;;;2.60;99.90;;;;;;5067304;28;20056;-62
2023/01/28 06:26:48;;;;;;;17.20;9.60;;;2.60;99.90;;;;;;5066341;28;20395;-63
2023/01/28 06:29:14;;;;;;;14.18;9.63;;;2.60;99.90;;;;;;5059211;28;20088;-62
2023/01/28 06:31:40;;;;;;;14.75;10.13;;;2.60;99.90;;;;;;5061901;28;20036;-62
2023/01/28 06:34:05;;;;;;;14.18;9.32;;;2.60;99.90;;;;;;5051544;28;20073;-63
2023/01/28 06:36:31;;;;;;;16.05;10.13;;;2.60;99.90;;;;;;5072962;28;20081;-63
2023/01/28 06:38:57;;;;;;;15.15;9.07;;;2.60;99.90;;;;;;5083814;28;20043;-63
2023/01/28 06:41:23;;;;;;;14.00;9.00;;;2.60;99.90;;;;;;5065008;28;20044;-62
2023/01/28 06:43:48;;;;;;;15.70;9.68;;;2.60;99.90;;;;;;5080578;28;20062;-63
2023/01/28 06:46:14;;;;;;;14.65;9.73;;;2.60;99.90;;;;;;5051339;28;20279;-61
2023/01/28 06:48:43;;;;;;;17.33;10.13;;;2.50;99.90;;;;;;5065985;28;20032;-62
2023/01/28 06:51:08;;;;;;;15.40;10.50;;;2.50;99.90;;;;;;5070432;28;20858;-62
2023/01/28 06:53:34;;;;;;;15.30;10.02;;;2.60;99.90;;;;;;5064910;28;20127;-62
2023/01/28 06:55:59;;;;;;;14.82;10.25;;;2.50;99.90;;;;;;5065202;28;20041;-62
2023/01/28 06:58:25;;;;;;;15.40;10.38;;;2.50;99.90;;;;;;5074033;28;20039;-64
2023/01/28 07:00:52;;;;;;;15.68;10.35;;;2.50;99.90;;;;;;5072575;28;20063;-62
2023/01/28 07:03:17;;;;;;;16.42;10.82;;;2.50;99.90;;;;;;5077583;28;20609;-62
2023/01/28 07:05:43;;;;;;;16.23;10.45;;;2.50;99.90;;;;;;5065086;28;20048;-62
2023/01/28 07:08:09;;;;;;;15.57;10.10;;;2.50;99.90;;;;;;5071247;28;20032;-62
2023/01/28 07:10:35;;;;;;;16.38;10.25;;;2.50;99.90;;;;;;5085356;28;20453;-62
2023/01/28 07:13:00;;;;;;;17.10;11.05;;;2.40;99.90;;;;;;5075328;28;20047;-63
2023/01/28 07:15:26;;;;;;;16.92;10.65;;;2.40;99.90;;;;;;5069560;28;20025;-62
2023/01/28 07:17:52;;;;;;;16.20;10.57;;;2.40;99.90;;;;;;5070715;28;20036;-63
2023/01/28 07:20:17;;;;;;;15.95;10.43;;;2.40;99.90;;;;;;5068998;28;20401;-62
2023/01/28 07:22:44;;;;;;;17.33;11.27;;;2.40;99.90;;;;;;5073243;28;20043;-62
2023/01/28 07:25:11;;;;;;;15.57;10.52;;;2.40;99.90;;;;;;5074869;28;20035;-62
2023/01/28 07:27:36;;;;;;;15.07;10.00;;;2.40;99.90;;;;;;5061916;28;20509;-62
2023/01/28 07:30:02;;;;;;;16.02;10.35;;;2.40;99.90;;;;;;5055333;28;20033;-63
2023/01/28 07:32:28;;;;;;;17.15;10.43;;;2.40;99.90;;;;;;5055845;28;20076;-63
2023/01/28 07:34:54;;;;;;;20.10;11.40;;;2.50;99.90;;;;;;5061948;28;20044;-62
2023/01/28 07:37:19;;;;;;;17.25;10.88;;;2.50;99.90;;;;;;5060227;28;20117;-61
2023/01/28 07:39:45;;;;;;;17.55;9.93;;;2.50;99.90;;;;;;5056693;28;20037;-63
2023/01/28 07:42:11;;;;;;;18.83;11.02;;;2.50;99.90;;;;;;5061623;28;20461;-63
2023/01/28 07:44:37;;;;;;;16.52;10.60;;;2.40;99.90;;;;;;5054800;28;20029;-63
2023/01/28 07:47:04;;;;;;;18.67;11.18;;;2.50;99.90;;;;;;5060735;28;20043;-63
2023/01/28 07:49:29;;;;;;;17.15;10.38;;;2.40;99.90;;;;;;5056312;28;20047;-63
2023/01/28 07:51:55;;;;;;;17.60;10.85;;;2.40;99.90;;;;;;5054721;28;20037;-63
2023/01/28 07:54:20;;;;;;;17.58;11.15;;;2.40;99.90;;;;;;5060931;28;20391;-63
2023/01/28 07:56:46;;;;;;;15.85;10.65;;;2.40;99.90;;;;;;5062887;28;20045;-62
2023/01/28 07:59:12;;;;;;;18.27;10.95;;;2.40;99.90;;;;;;5062029;28;20032;-62
2023/01/28 08:01:37;;;;;;;17.00;10.82;;;2.40;99.90;;;;;;5059473;28;20036;-63
2023/01/28 08:04:03;;;;;;;18.17;11.18;;;2.30;99.90;;;;;;5062013;28;20444;-63
2023/01/28 08:06:29;;;;;;;18.80;11.00;;;2.40;99.90;;;;;;5055113;28;20118;-63
2023/01/28 08:08:54;;;;;;;17.73;10.50;;;2.30;99.90;;;;;;5070589;22;20109;-62
2023/01/28 08:11:20;;;;;;;17.35;10.95;;;2.40;99.90;;;;;;5005410;28;20098;-62
2023/01/28 08:13:47;;;;;;;16.20;10.55;;;2.30;99.90;;;;;;5004098;28;20420;-63
2023/01/28 08:16:13;;;;;;;16.02;10.43;;;2.30;99.90;;;;;;4997455;28;20081;-63
2023/01/28 08:18:39;;;;;;;20.52;10.88;;;2.40;99.90;;;;;;4987817;28;20039;-62
2023/01/28 08:21:04;;;;;;;20.42;11.45;;;2.30;99.90;;;;;;4980125;28;20552;-63
2023/01/28 08:23:33;;;;;;;22.58;11.77;;;2.30;99.90;;;;;;4980563;28;20030;-63
2023/01/28 08:25:59;;;;;;;21.05;11.27;;;2.30;99.90;;;;;;4988845;28;20046;-62
2023/01/28 08:28:25;;;;;;;18.77;11.07;;;2.30;99.90;;;;;;4984708;28;20237;-63
2023/01/28 08:30:51;;;;;;;20.08;10.70;;;2.30;99.90;;;;;;4992396;28;20515;-62
2023/01/28 08:33:18;;;;;;;18.35;10.70;;;2.30;99.90;;;;;;4991139;28;20042;-63
2023/01/28 08:35:44;;;;;;;16.83;10.63;;;2.30;99.90;;;;;;4989673;28;20452;-63
2023/01/28 08:38:12;;;;;;;18.83;11.88;;;2.30;99.90;;;;;;4976647;28;20078;-63
2023/01/28 08:40:38;;;;;;;18.83;10.70;;;2.20;99.90;;;;;;4985262;28;20038;-63
2023/01/28 08:43:04;;;;;;;18.20;10.82;;;2.20;99.90;;;;;;4991907;28;20419;-62
2023/01/28 08:45:31;;;;;;;18.80;11.23;;;2.20;99.90;;;;;;4986930;28;20117;-63
2023/01/28 08:47:58;;;;;;;17.63;10.93;;;2.20;99.90;;;;;;4986488;28;20046;-63
2023/01/28 08:50:26;;;;;;;18.63;10.90;;;2.20;99.90;;;;;;4989849;28;20069;-63
2023/01/28 08:53:12;;;;;;;16.25;10.82;;;2.20;99.90;;;;;;4989253;28;20049;-63
2023/01/28 08:55:38;;;;;;;19.17;11.45;;;2.10;99.90;;;;;;4986357;28;20034;-63
2023/01/28 08:58:05;;;;;;;17.17;11.02;;;2.00;99.90;;;;;;4989128;28;20053;-63
2023/01/28 09:00:32;;;;;;;18.05;11.48;;;2.00;99.90;;;;;;4990956;28;20061;-63
2023/01/28 09:02:58;;;;;;;19.83;11.60;;;2.00;99.90;;;;;;4990290;28;20046;-63
2023/01/28 09:05:24;;;;;;;20.40;11.15;;;2.00;99.90;;;;;;4990953;28;20100;-63
2023/01/28 09:07:50;;;;;;;19.70;11.10;;;1.90;99.90;;;;;;4984394;28;20124;-63
2023/01/28 09:10:16;;;;;;;17.23;11.00;;;1.90;99.90;;;;;;4992282;28;20188;-63
2023/01/28 09:12:43;;;;;;;19.35;11.13;;;1.90;99.90;;;;;;4984758;28;20085;-62
2023/01/28 09:15:09;;;;;;;19.02;11.68;;;1.90;99.90;;;;;;5006494;28;20050;-70
2023/01/28 09:17:35;;;;;;;18.33;11.20;;;1.90;99.90;;;;;;4991280;28;20038;-61
2023/01/28 09:20:01;;;;;;;18.60;10.73;;;1.90;99.90;;;;;;4992630;28;20045;-61
2023/01/28 09:22:26;;;;;;;18.10;11.05;;;1.90;99.90;;;;;;4992159;28;20042;-60
2023/01/28 09:24:52;;;;;;;16.33;10.10;;;2.00;99.90;;;;;;4991016;28;20049;-62
2023/01/28 09:27:17;;;;;;;17.80;10.32;;;2.00;99.90;;;;;;4990021;28;20038;-64
2023/01/28 09:29:43;;;;;;;16.45;10.05;;;2.00;99.90;;;;;;4992348;28;20508;-61
2023/01/28 09:32:09;;;;;;;15.13;9.02;;;2.10;99.90;;;;;;4990722;28;20045;-61
2023/01/28 09:34:34;;;;;;;17.83;9.63;;;2.00;99.90;;;;;;4995171;28;20540;-62
2023/01/28 09:37:00;;;;;;;17.33;9.88;;;2.00;99.90;;;;;;4991631;28;20373;-61
2023/01/28 09:39:27;;;;;;;18.48;9.60;;;2.10;99.90;;;;;;4990221;28;20621;-62
2023/01/28 09:42:01;;;;;;;16.10;9.90;;;2.20;99.90;;;;;;4991696;28;20056;-61
2023/01/28 09:44:58;;;;;;;17.30;10.38;;;2.20;99.90;;;;;;4987037;28;20097;-61
2023/01/28 09:47:41;;;;;;;16.63;9.88;;;2.30;99.90;;;;;;4989624;28;20085;-61
2023/01/28 09:50:15;;;;;;;15.18;9.38;;;2.40;99.90;;;;;;4990738;28;20081;-61
2023/01/28 09:52:41;;;;;;;15.05;9.27;;;2.40;99.90;;;;;;4993997;28;20152;-62
2023/01/28 09:55:30;;;;;;;15.73;10.05;;;2.50;99.90;;;;;;4991223;28;20578;-61
2023/01/28 09:57:56;;;;;;;15.07;9.50;;;2.50;99.90;;;;;;4991470;28;20346;-61
2023/01/28 10:00:27;;;;;;;15.82;9.60;;;2.60;99.90;;;;;;4990282;28;20572;-61
2023/01/28 10:03:21;;;;;;;17.65;9.85;;;2.60;99.90;;;;;;4990060;28;20065;-61
2023/01/28 10:06:02;;;;;;;16.98;9.77;;;2.60;99.90;;;;;;4992593;28;20037;-64
2023/01/28 10:08:36;;;;;;;14.60;9.25;;;2.60;99.90;;;;;;5006810;28;20034;-61
2023/01/28 10:11:49;;;;;;;16.48;9.65;;;2.60;99.90;;;;;;4988920;28;20054;-61
2023/01/28 10:14:26;;;;;;;15.13;8.98;;;2.60;99.90;;;;;;4992443;28;20038;-61
2023/01/28 10:17:04;;;;;;;15.40;9.20;;;2.60;99.90;;;;;;4993122;28;20124;-61
2023/01/28 10:19:37;;;;;;;16.92;10.50;;;2.60;99.90;;;;;;4991028;28;20046;-67
2023/01/28 10:22:06;;;;;;;;;;;2.50;99.90;;;;;;4991505;28;20159;-61
2023/01/28 10:24:40;;;;;;;16.58;9.57;;;2.60;99.90;;;;;;4991569;28;20030;-62
2023/01/28 10:27:15;;;;;;;16.48;9.40;;;2.50;99.90;;;;;;4979625;28;20071;-62
2023/01/28 10:29:44;;;;;;;17.08;9.73;;;2.60;99.90;;;;;;4989345;28;20396;-67
2023/01/28 10:32:34;;;;;;;15.73;9.73;;;2.60;99.90;;;;;;4991511;28;20391;-61
2023/01/28 10:35:01;;;;;;;15.80;9.30;;;2.60;99.90;;;;;;4995838;28;20181;-62
2023/01/28 10:37:32;;;;;;;15.68;9.18;;;2.60;99.90;;;;;;4990586;28;20038;-60
2023/01/28 10:39:59;;;;;;;15.30;9.05;;;2.60;99.90;;;;;;4991164;28;20514;-63
2023/01/28 10:42:31;;;;;;;16.30;8.98;;;2.60;99.90;;;;;;4990409;28;20045;-61
2023/01/28 10:45:01;;;;;;;15.95;9.65;;;2.70;99.90;;;;;;4988855;28;20049;-61
2023/01/28 10:47:38;;;;;;;15.55;9.00;;;2.70;99.90;;;;;;4991013;28;20047;-62
2023/01/28 10:50:05;;;;;;;13.88;8.18;;;2.70;99.90;;;;;;4996047;28;20041;-63
2023/01/28 10:52:30;;;;;;;13.13;7.72;;;2.80;99.90;;;;;;4989460;28;20077;-62
2023/01/28 10:55:05;;;;;;;13.68;8.27;;;2.80;99.90;;;;;;4990853;28;20066;-62
2023/01/28 10:57:33;;;;;;;12.52;7.80;;;2.90;99.90;;;;;;4988207;28;20089;-62
2023/01/28 11:00:11;;;;;;;13.85;7.72;;;2.90;99.90;;;;;;4991167;28;20043;-61
2023/01/28 11:02:36;;;;;;;14.20;8.35;;;3.00;99.90;;;;;;4988046;28;20049;-62
2023/01/28 11:05:19;;;;;;;12.82;7.72;;;3.00;99.90;;;;;;4987100;28;20039;-66
2023/01/28 11:07:47;;;;;;;;;;;3.00;99.90;;;;;;5003255;28;20077;-62
2023/01/28 11:10:31;;;;;;;13.82;8.55;;;3.10;99.90;;;;;;4985605;28;19926;-62
2023/01/28 11:13:02;;;;;;;13.55;8.05;;;3.10;99.90;;;;;;4983992;28;20068;-65
2023/01/28 11:15:28;;;;;;;13.32;8.48;;;3.10;99.90;;;;;;4993471;28;20034;-61
2023/01/28 11:18:01;;;;;;;14.13;8.93;;;3.20;99.90;;;;;;4993701;28;20393;-61
2023/01/28 11:20:30;;;;;;;14.55;8.70;;;3.20;99.90;;;;;;4995210;28;20150;-66
2023/01/28 11:22:56;;;;;;;13.68;8.55;;;3.80;99.90;;;;;;5006213;28;20096;-61
2023/01/28 11:25:35;;;;;;;13.80;8.60;;;3.30;99.90;;;;;;4994485;28;20114;-61
2023/01/28 11:28:04;;;;;;;16.15;9.10;;;3.30;99.90;;;;;;4993870;28;20370;-61
2023/01/28 11:30:35;;;;;;;15.73;9.38;;;3.40;99.90;;;;;;4995115;28;20121;-61
2023/01/28 11:33:41;;;;;;;16.33;9.45;;;3.40;99.90;;;;;;5000996;28;20507;-66
2023/01/28 11:36:33;;;;;;;15.75;9.85;;;3.50;99.90;;;;;;4988270;28;20054;-61
2023/01/28 11:39:24;;;;;;;15.55;9.30;;;3.50;99.90;;;;;;4984108;28;20085;-65
2023/01/28 11:41:51;;;;;;;14.75;8.55;;;3.50;99.90;;;;;;4994758;28;20435;-62
2023/01/28 11:44:25;;;;;;;16.42;8.40;;;3.60;99.90;;;;;;4994268;28;20397;-65
2023/01/28 11:47:14;;;;;;;14.32;8.57;;;3.70;99.90;;;;;;4991439;28;20053;-62
2023/01/28 11:49:57;;;;;;;13.88;8.48;;;3.80;99.90;;;;;;4991257;28;20505;-62
2023/01/28 11:52:44;;;;;;;14.93;8.52;;;4.00;99.90;;;;;;4991558;28;20074;-62
2023/01/28 11:55:19;;;;;;;12.98;7.68;;;4.10;99.90;;;;;;4991172;28;20074;-65
2023/01/28 11:58:07;;;;;;;13.88;7.93;;;4.20;99.90;;;;;;4991756;28;20084;-61
2023/01/28 12:00:37;;;;;;;13.30;8.23;;;4.30;99.90;;;;;;4986142;28;20042;-61
2023/01/28 12:03:14;;;;;;;13.73;7.68;;;4.40;99.90;;;;;;4991864;28;20042;-62
2023/01/28 12:05:53;;;;;;;13.35;7.85;;;4.40;99.90;;;;;;4992015;28;20054;-65
2023/01/28 12:08:33;;;;;;;12.52;7.40;;;4.50;99.90;;;;;;4986069;28;20500;-65
2023/01/28 12:11:15;;;;;;;12.35;7.60;;;4.60;99.90;;;;;;4994775;28;20081;-61
2023/01/28 12:13:44;;;;;;;13.90;8.00;;;4.70;99.90;;;;;;4991368;28;20476;-61
2023/01/28 12:16:36;;;;;;;13.15;7.90;;;4.70;99.90;;;;;;4990916;28;20188;-61
2023/01/28 12:19:18;;;;;;;12.57;8.15;;;4.80;99.90;;;;;;4998306;28;20117;-61
2023/01/28 12:22:00;;;;;;;15.40;7.90;;;4.80;99.90;;;;;;4991331;28;20049;-60
2023/01/28 12:25:02;;;;;;;13.48;8.07;;;4.90;99.90;;;;;;4987152;28;20053;-61
2023/01/28 12:27:53;;;;;;;15.63;8.77;;;5.00;99.90;;;;;;4986059;28;20038;-61
2023/01/28 12:30:57;;;;;;;18.50;8.57;;;5.10;99.90;;;;;;4992373;28;20043;-67
2023/01/28 12:33:47;;;;;;;12.90;8.38;;;5.20;99.90;;;;;;4980703;28;20517;-61
2023/01/28 12:36:35;;;;;;;14.75;9.00;;;5.30;99.90;;;;;;4990131;28;20480;-61
2023/01/28 12:39:25;;;;;;;13.00;8.00;;;5.30;99.90;;;;;;4990612;28;20046;-67
2023/01/28 12:41:58;;;;;;;15.30;7.78;;;5.40;99.90;;;;;;5004433;28;20081;-61
2023/01/28 12:44:31;;;;;;;12.57;7.88;;;5.40;99.90;;;;;;4989883;28;20048;-61
2023/01/28 12:47:12;;;;;;;13.48;8.23;;;5.30;99.90;;;;;;4989562;28;20070;-65
2023/01/28 12:49:56;;;;;;;13.05;8.38;;;5.20;99.90;;;;;;4990851;28;20041;-61
2023/01/28 12:52:25;;;;;;;12.20;7.75;;;5.20;99.90;;;;;;4983395;28;20073;-63
2023/01/28 12:55:03;;;;;;;11.50;7.15;;;5.10;99.90;;;;;;4995450;28;20033;-61
2023/01/28 12:57:31;;;;;;;10.38;6.85;;;5.00;99.90;;;;;;4991412;28;20396;-61
2023/01/28 13:00:20;;;;;;;10.43;6.72;;;5.00;99.90;;;;;;4990422;28;20053;-64
2023/01/28 13:03:13;;;;;;;12.27;7.05;;;4.90;99.90;;;;;;4990300;28;20472;-62
2023/01/28 13:05:49;;;;;;;12.32;7.43;;;4.90;99.90;;;;;;4956081;28;20050;-61
2023/01/28 13:08:24;;;;;;;12.50;7.28;;;4.80;99.90;;;;;;4991998;28;20485;-61
2023/01/28 13:10:51;;;;;;;12.13;7.40;;;4.70;99.90;;;;;;4995320;28;20141;-62
2023/01/28 13:13:32;;;;;;;10.50;6.95;;;4.60;99.90;;;;;;4991640;28;20041;-61
2023/01/28 13:15:59;;;;;;;12.32;6.93;;;4.70;99.90;;;;;;4989738;28;20049;-62
2023/01/28 13:18:43;;;;;;;11.50;7.15;;;4.70;99.90;;;;;;4986295;28;20050;-62
2023/01/28 13:21:22;;;;;;;12.10;6.95;;;4.90;99.90;;;;;;4987805;28;20053;-62
2023/01/28 13:23:50;;;;;;;15.05;6.90;;;4.90;99.90;;;;;;5001508;28;20502;-68
2023/01/28 13:26:18;;;;;;;11.52;7.03;;;5.00;99.90;;;;;;4991054;28;20038;-62
2023/01/28 13:28:49;;;;;;;13.65;7.88;;;5.10;99.90;;;;;;4990951;28;20073;-66